Time;durP1;ratioP1;P1;durP2;ratioP2;P2;SDS_P1;SDS_P2;PMS_P1;PMS_P2;Temp;Humidity;BMP_temperature;BMP_pressure;BME280_temperature;BME280_humidity;BME280_pressure;Samples;Min_cycle;Max_cycle;Signal;HPM_P1;HPM_P2
2023/07/25 04:00:41;;;;;;;2.30;2.20;;;13.90;99.90;;;;;;5748427;23;20488;-71
2023/07/25 04:03:07;;;;;;;5.10;1.53;;;13.90;99.90;;;;;;4930518;29;20461;-70
2023/07/25 04:05:34;;;;;;;4.13;2.70;;;13.90;99.90;;;;;;4932450;29;20560;-70
2023/07/25 04:08:01;;;;;;;1.67;1.57;;;13.80;99.90;;;;;;4932052;29;20497;-70
2023/07/25 04:10:27;;;;;;;2.10;2.00;;;13.80;99.90;;;;;;4930367;29;20470;-70
2023/07/25 04:12:54;;;;;;;2.60;2.03;;;13.80;99.90;;;;;;4913367;29;20894;-70
2023/07/25 04:15:21;;;;;;;5.50;1.80;;;13.90;99.90;;;;;;4945605;23;20494;-71
2023/07/25 04:17:49;;;;;;;1.73;1.63;;;13.90;99.90;;;;;;4913645;23;20878;-68
2023/07/25 04:20:16;;;;;;;1.93;1.83;;;13.90;99.90;;;;;;4894704;29;20470;-68
2023/07/25 04:22:42;;;;;;;3.33;2.20;;;13.90;99.90;;;;;;4897818;29;20467;-68
2023/07/25 04:25:09;;;;;;;4.93;3.57;;;13.90;99.90;;;;;;4897076;29;20523;-68
2023/07/25 04:27:36;;;;;;;2.90;2.80;;;14.00;99.90;;;;;;4897088;29;20482;-68
2023/07/25 04:30:10;;;;;;;2.83;2.73;;;14.00;99.90;;;;;;4897376;29;20475;-67
2023/07/25 04:32:39;;;;;;;4.30;3.90;;;14.00;99.90;;;;;;4897807;29;20471;-68
2023/07/25 04:35:09;;;;;;;2.73;2.50;;;14.00;99.90;;;;;;4896454;29;20553;-67
2023/07/25 04:37:35;;;;;;;2.50;2.40;;;14.10;99.90;;;;;;4896550;29;20819;-68
2023/07/25 04:40:02;;;;;;;3.00;2.53;;;14.20;99.90;;;;;;4895649;29;20470;-68
2023/07/25 04:42:29;;;;;;;1.70;1.70;;;14.20;99.90;;;;;;4898038;29;20474;-67
2023/07/25 04:44:55;;;;;;;2.87;2.70;;;14.30;99.90;;;;;;4896703;29;20510;-68
2023/07/25 04:47:22;;;;;;;20.30;2.50;;;14.40;99.90;;;;;;4896589;29;20512;-68
2023/07/25 04:49:49;;;;;;;2.80;2.67;;;14.50;99.90;;;;;;4896746;29;20467;-67
2023/07/25 04:52:17;;;;;;;3.50;3.30;;;14.90;99.90;;;;;;4896545;29;20597;-68
2023/07/25 04:54:44;;;;;;;5.30;4.33;;;15.40;99.90;;;;;;4895560;29;20459;-67
2023/07/25 04:57:11;;;;;;;3.80;3.60;;;15.80;99.90;;;;;;4896286;29;20511;-68
2023/07/25 04:59:37;;;;;;;3.40;3.07;;;16.10;99.90;;;;;;4896711;29;20522;-68
2023/07/25 05:02:04;;;;;;;2.60;2.40;;;16.50;99.90;;;;;;4896598;29;20471;-69
2023/07/25 05:04:31;;;;;;;2.73;2.40;;;17.20;99.90;;;;;;4896764;29;20501;-68
2023/07/25 05:06:58;;;;;;;1.30;1.30;;;17.70;99.90;;;;;;4897205;29;20479;-69
2023/07/25 05:09:26;;;;;;;1.93;1.83;;;18.10;99.90;;;;;;4896750;29;20466;-70
2023/07/25 05:11:53;;;;;;;1.93;1.70;;;18.50;99.90;;;;;;4897085;29;20539;-69
2023/07/25 05:14:20;;;;;;;4.13;2.00;;;18.80;99.90;;;;;;4897050;29;20468;-69
2023/07/25 05:16:47;;;;;;;1.67;1.57;;;18.80;99.90;;;;;;4896376;29;20482;-70
2023/07/25 05:19:16;;;;;;;1.17;1.17;;;19.00;99.90;;;;;;4895845;29;20494;-70
2023/07/25 05:21:42;;;;;;;1.70;1.60;;;19.20;99.90;;;;;;4895948;29;20558;-68
2023/07/25 05:24:09;;;;;;;2.07;1.97;;;19.30;99.90;;;;;;4895762;29;20853;-69
2023/07/25 05:26:37;;;;;;;1.50;1.40;;;19.40;99.90;;;;;;4896238;29;20560;-68
2023/07/25 05:29:04;;;;;;;1.50;1.50;;;19.30;99.90;;;;;;4896917;29;20505;-68
2023/07/25 05:31:31;;;;;;;1.10;1.10;;;19.00;99.90;;;;;;4897240;29;20472;-68
2023/07/25 05:33:57;;;;;;;1.67;1.50;;;18.70;99.90;;;;;;4896479;29;20473;-69
2023/07/25 05:36:24;;;;;;;1.20;1.20;;;18.40;99.90;;;;;;4896446;29;20467;-68
2023/07/25 05:38:51;;;;;;;1.03;1.00;;;18.10;99.90;;;;;;4892693;29;20499;-69
2023/07/25 05:41:18;;;;;;;1.47;1.47;;;17.80;99.90;;;;;;4909307;29;20836;-68
2023/07/25 05:43:46;;;;;;;1.50;1.50;;;17.60;99.90;;;;;;4896152;29;20470;-69
2023/07/25 05:46:13;;;;;;;3.03;2.03;;;17.40;99.90;;;;;;4896100;29;20497;-68
2023/07/25 05:48:40;;;;;;;1.60;1.50;;;17.30;99.90;;;;;;4896788;29;20675;-69
2023/07/25 05:51:09;;;;;;;1.90;1.80;;;17.20;99.90;;;;;;4895891;29;20931;-68
2023/07/25 05:53:36;;;;;;;1.97;1.80;;;17.30;99.90;;;;;;4896543;29;20488;-68
2023/07/25 05:56:03;;;;;;;1.67;1.67;;;17.20;99.90;;;;;;4896153;29;20463;-69
2023/07/25 05:58:31;;;;;;;2.07;2.07;;;17.20;99.90;;;;;;4896131;29;20487;-68
2023/07/25 06:00:59;;;;;;;10.37;2.70;;;17.30;99.90;;;;;;4896686;29;20467;-69
2023/07/25 06:03:26;;;;;;;1.80;1.80;;;17.50;99.90;;;;;;4895986;29;20527;-68
2023/07/25 06:05:52;;;;;;;2.10;1.83;;;17.60;99.90;;;;;;4895515;29;20649;-69
2023/07/25 06:08:19;;;;;;;2.77;2.67;;;17.60;99.90;;;;;;4895521;29;20493;-68
2023/07/25 06:10:46;;;;;;;2.03;1.63;;;18.10;99.90;;;;;;4895857;29;20474;-70
2023/07/25 06:13:13;;;;;;;1.33;1.17;;;18.70;99.90;;;;;;4895934;29;20496;-67
2023/07/25 06:15:40;;;;;;;2.73;1.57;;;19.10;99.90;;;;;;4895725;29;20607;-69
2023/07/25 06:18:08;;;;;;;1.57;1.57;;;19.40;99.90;;;;;;4895202;29;20589;-69
2023/07/25 06:20:35;;;;;;;1.30;1.20;;;19.90;99.90;;;;;;4896644;29;20470;-69
2023/07/25 06:23:02;;;;;;;2.03;2.03;;;20.40;99.90;;;;;;4896426;29;20458;-67
2023/07/25 06:25:29;;;;;;;1.10;1.10;;;20.80;99.90;;;;;;4895687;29;20493;-68
2023/07/25 06:27:56;;;;;;;1.30;1.30;;;21.30;99.90;;;;;;4896251;29;20497;-69
2023/07/25 06:30:23;;;;;;;1.40;1.30;;;21.50;99.90;;;;;;4895307;29;20555;-68
2023/07/25 06:32:50;;;;;;;1.03;1.03;;;22.10;99.90;;;;;;4896283;29;20543;-70
2023/07/25 06:35:18;;;;;;;1.23;1.03;;;22.20;99.90;;;;;;4895477;29;20474;-68
2023/07/25 06:37:45;;;;;;;0.80;0.80;;;22.20;99.90;;;;;;4895439;29;20507;-68
2023/07/25 06:40:12;;;;;;;1.07;1.07;;;22.50;99.90;;;;;;4897710;29;20470;-69
2023/07/25 06:42:39;;;;;;;1.40;1.40;;;22.90;99.90;;;;;;4895401;29;20934;-70
2023/07/25 06:45:08;;;;;;;0.83;0.83;;;23.10;99.90;;;;;;4895064;29;20515;-68
2023/07/25 06:47:33;;;;;;;1.10;1.10;;;23.20;99.90;;;;;;4895388;29;20506;-69
2023/07/25 06:50:00;;;;;;;1.33;1.33;;;22.90;99.90;;;;;;4895345;29;20472;-68
2023/07/25 06:52:28;;;;;;;0.70;0.70;;;22.90;99.90;;;;;;4895828;29;20230;-70
2023/07/25 06:54:55;;;;;;;0.97;0.97;;;23.30;99.90;;;;;;4894556;29;20821;-69
2023/07/25 06:57:22;;;;;;;1.13;1.10;;;23.40;99.90;;;;;;4895482;29;20487;-69
2023/07/25 06:59:49;;;;;;;0.90;0.90;;;23.00;99.90;;;;;;4894852;29;20530;-69
2023/07/25 07:02:16;;;;;;;1.40;1.40;;;22.50;99.90;;;;;;4896204;29;20843;-69
2023/07/25 07:04:43;;;;;;;2.00;0.80;;;22.10;99.90;;;;;;4895287;29;20470;-68
2023/07/25 07:07:09;;;;;;;2.33;1.33;;;21.90;99.90;;;;;;4895217;29;20494;-68
2023/07/25 07:09:37;;;;;;;1.30;1.30;;;22.20;99.90;;;;;;4895065;29;20477;-69
2023/07/25 07:12:05;;;;;;;1.20;1.20;;;22.40;99.90;;;;;;4894916;29;20955;-68
2023/07/25 07:14:32;;;;;;;0.80;0.80;;;22.50;99.90;;;;;;4895113;29;20927;-70
2023/07/25 07:16:59;;;;;;;1.30;0.80;;;22.90;99.90;;;;;;4895058;29;20473;-69
2023/07/25 07:19:25;;;;;;;1.30;1.20;;;22.90;99.90;;;;;;4895405;29;20800;-69
2023/07/25 07:21:52;;;;;;;1.03;1.03;;;22.90;99.90;;;;;;4895251;29;20512;-68
2023/07/25 07:24:19;;;;;;;0.60;0.60;;;23.40;99.90;;;;;;4894713;29;20566;-69
2023/07/25 07:26:47;;;;;;;1.00;1.00;;;23.70;99.90;;;;;;4895216;29;20851;-69
2023/07/25 07:29:14;;;;;;;0.63;0.63;;;23.20;99.90;;;;;;4895451;29;20479;-69
2023/07/25 07:31:41;;;;;;;0.57;0.57;;;22.70;99.90;;;;;;4894991;29;20551;-69
2023/07/25 07:34:13;;;;;;;0.80;0.80;;;22.40;99.90;;;;;;4894781;29;20479;-70
2023/07/25 07:36:39;;;;;;;0.70;0.70;;;22.20;99.90;;;;;;4894697;29;20464;-69
2023/07/25 07:39:06;;;;;;;1.17;1.17;;;22.00;99.90;;;;;;4889310;29;20571;-67
2023/07/25 07:41:34;;;;;;;1.57;1.03;;;22.00;99.90;;;;;;4905512;29;20467;-67
2023/07/25 07:44:02;;;;;;;1.00;1.00;;;21.70;99.90;;;;;;4913536;29;20468;-68
2023/07/25 07:46:29;;;;;;;1.10;1.10;;;21.80;99.90;;;;;;4913432;29;20516;-68
2023/07/25 07:48:57;;;;;;;1.00;1.00;;;21.60;99.90;;;;;;4914354;29;20487;-67
2023/07/25 07:51:24;;;;;;;2.43;1.27;;;21.40;99.90;;;;;;4913577;29;20473;-67
2023/07/25 07:53:51;;;;;;;0.70;0.70;;;21.30;99.90;;;;;;4913577;29;20474;-67
2023/07/25 07:56:18;;;;;;;0.80;0.80;;;21.20;99.90;;;;;;4916129;29;20557;-68
2023/07/25 07:58:45;;;;;;;0.80;0.80;;;21.20;99.90;;;;;;4916273;29;20495;-69
2023/07/25 08:01:17;;;;;;;1.50;1.20;;;21.10;99.90;;;;;;4917269;29;20481;-70
2023/07/25 08:03:44;;;;;;;2.13;1.20;;;21.20;99.90;;;;;;4917318;29;20594;-68
2023/07/25 08:06:11;;;;;;;1.90;1.10;;;21.30;99.90;;;;;;4917249;29;20987;-69
2023/07/25 08:08:38;;;;;;;1.07;0.97;;;21.30;99.90;;;;;;4917814;29;21163;-68
2023/07/25 08:11:05;;;;;;;0.77;0.77;;;21.10;99.90;;;;;;4917728;29;20477;-69
2023/07/25 08:13:32;;;;;;;0.87;0.87;;;21.00;99.90;;;;;;4917385;29;20466;-69
2023/07/25 08:15:58;;;;;;;3.40;1.10;;;21.20;99.90;;;;;;4916618;29;20775;-68
2023/07/25 08:18:27;;;;;;;1.10;1.10;;;21.50;99.90;;;;;;4916443;29;20494;-70
2023/07/25 08:20:56;;;;;;;2.00;1.10;;;22.00;99.90;;;;;;4916776;29;20468;-69
2023/07/25 08:23:23;;;;;;;0.93;0.93;;;22.40;99.90;;;;;;4916727;29;20942;-68
2023/07/25 08:25:50;;;;;;;0.80;0.80;;;22.30;99.90;;;;;;4916237;29;20500;-68
2023/07/25 08:28:17;;;;;;;0.80;0.80;;;21.70;99.90;;;;;;4917229;29;20560;-69
2023/07/25 08:30:44;;;;;;;0.70;0.70;;;21.40;99.90;;;;;;4916968;29;20479;-68
2023/07/25 08:33:12;;;;;;;0.70;0.70;;;21.30;99.90;;;;;;4916212;29;20840;-69
2023/07/25 08:35:40;;;;;;;2.30;0.80;;;21.30;99.90;;;;;;4916141;29;20509;-69
2023/07/25 08:38:07;;;;;;;0.97;0.97;;;21.30;99.90;;;;;;4916678;29;20538;-69
2023/07/25 08:40:34;;;;;;;1.50;1.00;;;21.30;99.90;;;;;;4898625;29;20468;-68
2023/07/25 08:43:06;;;;;;;0.50;0.50;;;21.10;99.90;;;;;;4916539;29;20675;-67
2023/07/25 08:45:34;;;;;;;0.70;0.70;;;20.90;99.90;;;;;;4916172;29;20492;-69
2023/07/25 08:48:04;;;;;;;1.80;0.80;;;21.10;99.90;;;;;;4916569;29;20907;-69
2023/07/25 08:50:32;;;;;;;0.80;0.80;;;21.20;99.90;;;;;;4916085;29;20893;-67
2023/07/25 08:53:03;;;;;;;2.53;0.80;;;21.20;99.90;;;;;;4915986;29;20833;-68
2023/07/25 08:55:30;;;;;;;1.90;1.80;;;20.90;99.90;;;;;;4915835;29;20980;-68
2023/07/25 08:57:57;;;;;;;0.50;0.50;;;20.40;99.90;;;;;;4916469;29;20595;-67
2023/07/25 09:00:24;;;;;;;4.00;1.00;;;20.00;99.90;;;;;;4915977;29;20563;-68
2023/07/25 09:02:52;;;;;;;0.77;0.77;;;19.80;99.90;;;;;;4916776;29;20822;-67
2023/07/25 09:05:19;;;;;;;2.07;1.40;;;19.80;99.90;;;;;;4915955;29;20467;-68
2023/07/25 09:07:46;;;;;;;0.97;0.97;;;19.90;99.90;;;;;;4916297;29;20489;-68
2023/07/25 09:10:14;;;;;;;0.60;0.60;;;20.10;99.90;;;;;;4916299;29;20818;-69
2023/07/25 09:12:41;;;;;;;0.70;0.70;;;20.40;99.90;;;;;;4916097;29;20996;-69
2023/07/25 09:15:08;;;;;;;0.90;0.90;;;20.70;99.90;;;;;;4915876;29;20477;-68
2023/07/25 09:17:35;;;;;;;0.90;0.90;;;20.80;99.90;;;;;;4915466;29;20841;-69
2023/07/25 09:20:02;;;;;;;0.50;0.50;;;20.70;99.90;;;;;;4916184;29;20477;-68
2023/07/25 09:22:31;;;;;;;2.83;0.70;;;20.60;99.90;;;;;;4915966;29;20497;-68
2023/07/25 09:24:59;;;;;;;0.93;0.80;;;20.70;99.90;;;;;;4914986;29;20594;-70
2023/07/25 09:27:27;;;;;;;1.40;0.90;;;20.90;99.90;;;;;;4915192;29;20504;-67
2023/07/25 09:29:54;;;;;;;0.73;0.73;;;21.20;99.90;;;;;;4915261;29;20508;-68
2023/07/25 09:32:24;;;;;;;2.03;0.50;;;21.20;99.90;;;;;;4916475;29;20512;-69
2023/07/25 09:34:55;;;;;;;1.27;0.80;;;21.30;99.90;;;;;;4915167;29;20519;-68
2023/07/25 09:37:22;;;;;;;2.00;0.50;;;21.10;99.90;;;;;;4915994;29;20878;-67
2023/07/25 09:39:49;;;;;;;0.57;0.50;;;21.00;99.90;;;;;;4906912;29;20548;-68
2023/07/25 09:42:16;;;;;;;1.10;0.90;;;21.00;99.90;;;;;;4907569;29;20469;-69
2023/07/25 09:44:47;;;;;;;0.97;0.80;;;21.30;99.90;;;;;;4915380;29;20522;-68
2023/07/25 09:47:14;;;;;;;1.63;0.77;;;21.40;99.90;;;;;;4915884;29;20510;-67
2023/07/25 09:49:48;;;;;;;1.13;0.60;;;21.20;99.90;;;;;;4914926;29;20487;-68
2023/07/25 09:52:16;;;;;;;0.57;0.57;;;21.10;99.90;;;;;;4915272;29;20476;-69
2023/07/25 09:54:42;;;;;;;0.80;0.60;;;20.90;99.90;;;;;;4914462;29;20471;-68
2023/07/25 09:57:10;;;;;;;2.20;0.50;;;20.70;99.90;;;;;;4915327;29;20488;-69
2023/07/25 09:59:37;;;;;;;0.60;0.60;;;20.60;99.90;;;;;;4914944;29;20456;-68
2023/07/25 10:02:06;;;;;;;2.17;0.70;;;20.50;99.90;;;;;;4915177;29;20466;-69
2023/07/25 10:04:34;;;;;;;0.57;0.57;;;20.60;99.90;;;;;;4914386;29;20630;-66
2023/07/25 10:07:03;;;;;;;0.67;0.67;;;20.90;99.90;;;;;;4914786;29;21012;-69
2023/07/25 10:09:30;;;;;;;3.50;1.00;;;21.10;99.90;;;;;;4915005;29;20490;-68
2023/07/25 10:11:57;;;;;;;0.77;0.77;;;21.20;99.90;;;;;;4915954;29;20479;-69
2023/07/25 10:14:24;;;;;;;3.97;0.77;;;21.40;99.90;;;;;;4915720;29;20471;-69
2023/07/25 10:16:53;;;;;;;0.47;0.47;;;21.40;99.90;;;;;;4929557;23;20573;-72
2023/07/25 10:19:21;;;;;;;0.50;0.50;;;21.60;99.90;;;;;;4916031;29;20519;-71
2023/07/25 10:21:50;;;;;;;0.40;0.40;;;21.50;99.90;;;;;;4916948;29;20463;-71
2023/07/25 10:24:17;;;;;;;0.80;0.63;;;21.40;99.90;;;;;;4916250;29;20468;-72
2023/07/25 10:26:54;;;;;;;0.80;0.80;;;21.20;99.90;;;;;;4903467;29;20497;-72
2023/07/25 10:29:37;;;;;;;0.70;0.70;;;21.10;99.90;;;;;;4898567;29;20804;-72
2023/07/25 10:32:05;;;;;;;0.67;0.67;;;20.70;99.90;;;;;;4898849;29;20562;-71
2023/07/25 10:34:46;;;;;;;0.47;0.47;;;20.60;99.90;;;;;;4896921;29;20478;-70
2023/07/25 10:37:28;;;;;;;1.13;0.60;;;20.40;99.90;;;;;;4901342;29;20485;-70
2023/07/25 10:40:13;;;;;;;3.83;0.73;;;20.30;99.90;;;;;;4892535;29;20474;-70
2023/07/25 10:42:44;;;;;;;0.70;0.70;;;20.30;99.90;;;;;;4897194;29;20468;-69
2023/07/25 10:45:21;;;;;;;2.20;0.80;;;20.40;99.90;;;;;;4896514;29;20470;-70
2023/07/25 10:47:49;;;;;;;0.50;0.50;;;20.30;99.90;;;;;;4896865;29;20856;-70
2023/07/25 10:50:19;;;;;;;1.60;0.83;;;20.20;99.90;;;;;;4896625;29;20472;-70
2023/07/25 10:52:47;;;;;;;0.40;0.40;;;20.10;99.90;;;;;;4896644;29;20850;-70
2023/07/25 10:55:14;;;;;;;1.50;0.50;;;20.00;99.90;;;;;;4895387;29;20484;-70
2023/07/25 10:57:41;;;;;;;0.60;0.60;;;19.80;99.90;;;;;;4896811;29;20466;-70
2023/07/25 11:00:09;;;;;;;2.10;1.00;;;19.70;99.90;;;;;;4896407;29;20469;-70
2023/07/25 11:02:38;;;;;;;0.60;0.60;;;19.50;99.90;;;;;;4896444;29;20478;-70
2023/07/25 11:05:24;;;;;;;1.07;0.63;;;19.30;99.90;;;;;;4896107;29;20655;-70
2023/07/25 11:07:53;;;;;;;0.60;0.60;;;19.20;99.90;;;;;;4896384;29;20502;-72
2023/07/25 11:10:21;;;;;;;0.60;0.50;;;19.00;99.90;;;;;;4896065;29;20879;-72
2023/07/25 11:12:51;;;;;;;2.03;0.40;;;18.90;99.90;;;;;;4896647;29;20843;-72
2023/07/25 11:15:18;;;;;;;0.40;0.40;;;18.90;99.90;;;;;;4895947;29;20531;-71
2023/07/25 11:17:45;;;;;;;2.10;0.83;;;18.90;99.90;;;;;;4896286;29;20497;-72
2023/07/25 11:20:13;;;;;;;0.40;0.40;;;18.80;99.90;;;;;;4896676;29;20494;-72
2023/07/25 11:22:41;;;;;;;0.70;0.70;;;18.80;99.90;;;;;;4899557;29;20464;-72
2023/07/25 11:25:09;;;;;;;0.73;0.73;;;18.90;99.90;;;;;;4895743;29;20471;-72
2023/07/25 11:27:40;;;;;;;0.90;0.90;;;18.90;99.90;;;;;;4896450;29;20495;-72
2023/07/25 11:30:12;;;;;;;1.80;0.80;;;18.90;99.90;;;;;;4898794;29;20971;-72
2023/07/25 11:32:39;;;;;;;2.83;0.90;;;19.00;99.90;;;;;;4899057;29;20491;-71
2023/07/25 11:35:07;;;;;;;1.03;0.90;;;19.20;99.90;;;;;;4898582;29;20966;-72
2023/07/25 11:37:33;;;;;;;0.50;0.50;;;19.30;99.90;;;;;;4899001;29;20496;-72
2023/07/25 11:40:13;;;;;;;0.50;0.50;;;19.50;99.90;;;;;;4894473;29;20508;-73
2023/07/25 11:42:41;;;;;;;0.50;0.50;;;19.70;99.90;;;;;;4898792;29;20480;-72
2023/07/25 11:45:10;;;;;;;0.80;0.70;;;19.80;99.90;;;;;;4898469;29;20474;-72
2023/07/25 11:47:38;;;;;;;0.50;0.50;;;19.90;99.90;;;;;;4899872;29;20496;-72
2023/07/25 11:50:06;;;;;;;1.13;1.03;;;19.80;99.90;;;;;;4898903;29;20477;-72
2023/07/25 11:52:34;;;;;;;0.20;0.20;;;19.70;99.90;;;;;;4898508;29;21033;-72
2023/07/25 11:55:02;;;;;;;0.50;0.50;;;19.80;99.90;;;;;;4897648;29;20558;-72
2023/07/25 11:57:31;;;;;;;2.50;0.80;;;19.80;99.90;;;;;;4898856;29;20492;-72
2023/07/25 12:00:00;;;;;;;0.77;0.70;;;20.00;99.90;;;;;;4898915;29;20864;-70
2023/07/25 12:02:27;;;;;;;0.80;0.80;;;20.20;99.90;;;;;;4898813;29;20474;-72
2023/07/25 12:04:54;;;;;;;0.63;0.57;;;20.10;99.90;;;;;;4898197;29;20510;-73
2023/07/25 12:07:21;;;;;;;0.40;0.40;;;20.30;99.90;;;;;;4898645;29;20493;-72
2023/07/25 12:09:52;;;;;;;0.50;0.50;;;20.40;99.90;;;;;;4898245;29;20481;-72
2023/07/25 12:12:19;;;;;;;1.87;0.70;;;20.40;99.90;;;;;;4899108;29;20474;-73
2023/07/25 12:14:58;;;;;;;0.50;0.50;;;20.00;99.90;;;;;;4898431;29;20497;-72
2023/07/25 12:17:43;;;;;;;0.47;0.47;;;19.50;99.90;;;;;;4899234;29;20499;-72
2023/07/25 12:20:17;;;;;;;0.80;0.80;;;19.40;99.90;;;;;;4899693;29;20557;-73
2023/07/25 12:22:44;;;;;;;0.30;0.30;;;19.00;99.90;;;;;;4899580;29;20472;-72
2023/07/25 12:25:15;;;;;;;0.67;0.67;;;18.80;99.90;;;;;;4898375;29;20463;-72
2023/07/25 12:27:45;;;;;;;2.00;0.60;;;18.60;99.90;;;;;;4899739;29;20998;-73
2023/07/25 12:30:14;;;;;;;0.60;0.60;;;18.40;99.90;;;;;;4897622;29;22076;-66
2023/07/25 12:32:40;;;;;;;0.50;0.50;;;18.40;99.90;;;;;;4889248;29;20489;-69
2023/07/25 12:35:09;;;;;;;1.00;1.00;;;18.40;99.90;;;;;;4895222;29;20463;-68
2023/07/25 12:37:36;;;;;;;0.70;0.70;;;18.50;99.90;;;;;;4894246;29;20467;-67
2023/07/25 12:40:03;;;;;;;0.50;0.50;;;18.60;99.90;;;;;;4892087;29;20861;-68
2023/07/25 12:42:30;;;;;;;0.40;0.40;;;18.60;99.90;;;;;;4893294;29;21174;-68
2023/07/25 12:45:01;;;;;;;0.50;0.50;;;18.70;99.90;;;;;;4896027;29;20471;-68
2023/07/25 12:47:29;;;;;;;4.90;0.60;;;18.70;99.90;;;;;;4900724;29;20603;-68
2023/07/25 12:49:55;;;;;;;1.17;0.50;;;18.80;99.90;;;;;;4897080;29;20976;-68
2023/07/25 12:52:22;;;;;;;0.47;0.47;;;19.00;99.90;;;;;;4899211;29;20695;-66
2023/07/25 12:54:49;;;;;;;4.77;0.77;;;19.20;99.90;;;;;;4897327;29;20480;-68
2023/07/25 12:57:15;;;;;;;0.43;0.43;;;19.30;99.90;;;;;;4897745;29;20509;-67
2023/07/25 12:59:42;;;;;;;0.40;0.40;;;19.60;99.90;;;;;;4896374;29;20485;-67
2023/07/25 13:02:09;;;;;;;0.50;0.50;;;19.80;99.90;;;;;;4895977;29;20508;-67
2023/07/25 13:04:37;;;;;;;2.37;1.03;;;20.00;99.90;;;;;;4897124;29;20526;-67
2023/07/25 13:07:05;;;;;;;1.80;0.83;;;20.10;99.90;;;;;;4896868;29;20501;-67
2023/07/25 13:09:31;;;;;;;1.07;0.50;;;20.20;99.90;;;;;;4893833;29;20475;-67
2023/07/25 13:11:58;;;;;;;1.20;0.57;;;20.30;99.90;;;;;;4897128;29;20467;-67
2023/07/25 13:14:25;;;;;;;4.07;1.00;;;20.40;99.90;;;;;;4894978;29;20511;-67
2023/07/25 13:16:52;;;;;;;0.50;0.50;;;20.60;99.90;;;;;;4895111;29;20517;-68
2023/07/25 13:19:18;;;;;;;2.70;0.67;;;20.50;99.90;;;;;;4897588;29;20979;-68
2023/07/25 13:21:47;;;;;;;0.60;0.60;;;20.30;99.90;;;;;;4899174;29;20489;-67
2023/07/25 13:24:13;;;;;;;0.37;0.37;;;20.00;99.90;;;;;;4895407;29;20498;-67
2023/07/25 13:26:40;;;;;;;1.70;0.37;;;19.70;99.90;;;;;;4897169;29;20577;-66
2023/07/25 13:29:07;;;;;;;1.90;0.50;;;19.20;99.90;;;;;;4895222;29;20484;-65
2023/07/25 13:31:34;;;;;;;0.70;0.70;;;18.90;99.90;;;;;;4897071;29;20464;-65
2023/07/25 13:34:01;;;;;;;0.50;0.50;;;18.60;99.90;;;;;;4896565;29;20495;-73
2023/07/25 13:36:27;;;;;;;0.60;0.60;;;18.40;99.90;;;;;;4898729;29;20487;-74
2023/07/25 13:38:55;;;;;;;1.20;1.00;;;18.30;99.90;;;;;;4892748;29;20476;-74
2023/07/25 13:41:22;;;;;;;0.33;0.33;;;18.20;99.90;;;;;;4896360;29;20475;-71
2023/07/25 13:43:49;;;;;;;0.87;0.73;;;18.20;99.90;;;;;;4896209;29;20582;-71
2023/07/25 13:46:16;;;;;;;0.60;0.60;;;18.30;99.90;;;;;;4897439;29;20491;-72
2023/07/25 13:48:44;;;;;;;0.60;0.60;;;18.30;99.90;;;;;;4898028;29;20545;-73
2023/07/25 13:51:11;;;;;;;1.60;0.97;;;18.30;99.90;;;;;;4896392;29;20468;-73
2023/07/25 13:53:38;;;;;;;0.67;0.67;;;18.40;99.90;;;;;;4896274;29;20670;-73
2023/07/25 13:56:06;;;;;;;0.67;0.67;;;18.40;99.90;;;;;;4896625;29;20492;-72
2023/07/25 13:58:33;;;;;;;0.87;0.87;;;18.20;99.90;;;;;;4896613;29;20535;-72
2023/07/25 14:01:00;;;;;;;1.10;1.00;;;18.20;99.90;;;;;;4896712;29;20839;-73
2023/07/25 14:03:27;;;;;;;1.13;0.90;;;18.20;99.90;;;;;;4896198;29;20476;-73
2023/07/25 14:05:54;;;;;;;2.90;0.80;;;18.10;99.90;;;;;;4895078;29;21018;-73
2023/07/25 14:08:21;;;;;;;0.60;0.60;;;18.10;99.90;;;;;;4894197;29;20491;-74
2023/07/25 14:10:48;;;;;;;0.70;0.70;;;18.10;99.90;;;;;;4896483;29;20478;-73
2023/07/25 14:13:16;;;;;;;1.07;0.83;;;18.10;99.90;;;;;;4895995;29;21102;-73
2023/07/25 14:15:42;;;;;;;0.80;0.80;;;18.10;99.90;;;;;;4894784;29;21050;-73
2023/07/25 14:18:09;;;;;;;1.70;0.90;;;18.10;99.90;;;;;;4895550;29;20472;-74
2023/07/25 14:20:37;;;;;;;1.00;1.00;;;18.10;99.90;;;;;;4896028;29;20463;-74
2023/07/25 14:23:04;;;;;;;0.67;0.60;;;18.10;99.90;;;;;;4891101;29;20494;-74
2023/07/25 14:25:31;;;;;;;3.37;1.73;;;18.10;99.90;;;;;;4895446;29;20483;-74
2023/07/25 14:27:57;;;;;;;0.63;0.63;;;18.10;99.90;;;;;;4895880;29;20559;-74
2023/07/25 14:30:26;;;;;;;2.60;1.10;;;18.10;99.90;;;;;;4894924;29;20958;-74
2023/07/25 14:32:52;;;;;;;2.10;0.73;;;18.10;99.90;;;;;;4894524;29;20483;-74
2023/07/25 14:35:19;;;;;;;1.80;0.57;;;18.10;99.90;;;;;;4894432;29;20490;-73
2023/07/25 14:37:46;;;;;;;0.50;0.50;;;18.20;99.90;;;;;;4895159;29;20467;-74
2023/07/25 14:40:13;;;;;;;1.07;1.07;;;18.20;99.90;;;;;;4894731;29;20486;-74
2023/07/25 14:42:40;;;;;;;6.17;1.37;;;18.20;99.90;;;;;;4894172;29;20954;-73
2023/07/25 14:45:07;;;;;;;0.57;0.57;;;18.20;99.90;;;;;;4893669;29;20478;-71
2023/07/25 14:47:35;;;;;;;0.90;0.90;;;18.20;99.90;;;;;;4893791;29;20491;-71
2023/07/25 14:50:02;;;;;;;0.67;0.67;;;18.20;99.90;;;;;;4893938;29;20531;-71
2023/07/25 14:52:29;;;;;;;0.80;0.80;;;18.20;99.90;;;;;;4895203;29;20479;-73
2023/07/25 14:54:55;;;;;;;0.40;0.40;;;18.30;99.90;;;;;;4893077;29;20508;-73
2023/07/25 14:57:23;;;;;;;0.40;0.40;;;18.30;99.90;;;;;;4894948;29;20498;-73
2023/07/25 14:59:50;;;;;;;0.80;0.80;;;18.30;99.90;;;;;;4894724;29;20890;-73
2023/07/25 15:02:17;;;;;;;5.20;0.97;;;18.40;99.90;;;;;;4893329;29;20495;-73
2023/07/25 15:04:45;;;;;;;0.67;0.67;;;18.50;99.90;;;;;;4894342;29;20484;-73
2023/07/25 15:07:11;;;;;;;0.60;0.60;;;18.60;99.90;;;;;;4895079;29;20492;-73
2023/07/25 15:09:38;;;;;;;1.10;0.60;;;18.80;99.90;;;;;;4894420;29;20994;-73
2023/07/25 15:12:05;;;;;;;0.60;0.60;;;19.00;99.90;;;;;;4892989;29;20503;-74
2023/07/25 15:14:32;;;;;;;1.50;0.50;;;19.20;99.90;;;;;;4893262;29;20880;-73
2023/07/25 15:16:59;;;;;;;1.10;1.10;;;19.40;99.90;;;;;;4895029;29;20510;-73
2023/07/25 15:19:25;;;;;;;1.60;1.40;;;19.50;99.90;;;;;;4894948;29;20860;-73
2023/07/25 15:21:54;;;;;;;0.83;0.83;;;19.70;99.90;;;;;;4894955;29;20470;-72
2023/07/25 15:24:20;;;;;;;1.40;1.30;;;19.80;99.90;;;;;;4894012;29;20864;-73
2023/07/25 15:26:49;;;;;;;0.93;0.90;;;20.10;99.90;;;;;;4892382;29;20487;-73
2023/07/25 15:29:16;;;;;;;0.90;0.90;;;20.20;99.90;;;;;;4895063;29;20494;-73
2023/07/25 15:31:42;;;;;;;0.60;0.60;;;20.20;99.90;;;;;;4895248;29;20998;-73
2023/07/25 15:34:09;;;;;;;0.80;0.80;;;20.30;99.90;;;;;;4894564;29;20484;-73
2023/07/25 15:36:36;;;;;;;0.77;0.77;;;20.30;99.90;;;;;;4888029;29;20975;-73
2023/07/25 15:39:04;;;;;;;0.30;0.30;;;20.20;99.90;;;;;;4891217;29;20486;-73
2023/07/25 15:41:30;;;;;;;0.93;0.50;;;20.10;99.90;;;;;;4885171;29;20482;-73
2023/07/25 15:43:57;;;;;;;0.60;0.60;;;20.10;99.90;;;;;;4881965;29;20479;-73
2023/07/25 15:46:24;;;;;;;3.30;0.90;;;20.10;99.90;;;;;;4890273;29;20494;-73
2023/07/25 15:48:53;;;;;;;2.00;0.60;;;20.10;99.90;;;;;;4886197;29;20617;-73
2023/07/25 15:51:20;;;;;;;0.70;0.70;;;20.10;99.90;;;;;;4877249;29;20498;-72
2023/07/25 15:53:47;;;;;;;0.70;0.70;;;20.10;99.90;;;;;;4887702;29;20895;-72
2023/07/25 15:56:15;;;;;;;0.73;0.73;;;20.20;99.90;;;;;;4883200;29;20583;-73
2023/07/25 15:58:41;;;;;;;1.17;0.37;;;20.20;99.90;;;;;;4886866;29;20470;-74
2023/07/25 16:01:08;;;;;;;2.47;0.73;;;20.40;99.90;;;;;;4887375;29;20478;-73
2023/07/25 16:03:35;;;;;;;5.67;0.87;;;20.50;99.90;;;;;;4885638;29;20473;-73
2023/07/25 16:06:01;;;;;;;0.53;0.53;;;20.50;99.90;;;;;;4891424;29;20500;-73
2023/07/25 16:08:28;;;;;;;0.40;0.40;;;20.50;99.90;;;;;;4893906;29;20502;-71
2023/07/25 16:10:55;;;;;;;1.17;0.50;;;20.60;99.90;;;;;;4893313;29;20518;-71
2023/07/25 16:13:23;;;;;;;2.00;0.83;;;20.60;99.90;;;;;;4893895;29;21274;-72
2023/07/25 16:15:49;;;;;;;0.30;0.30;;;20.60;99.90;;;;;;4908735;23;20491;-71
2023/07/25 16:18:16;;;;;;;1.13;0.50;;;20.50;99.90;;;;;;4915123;29;20486;-72
2023/07/25 16:20:43;;;;;;;2.00;0.37;;;20.40;99.90;;;;;;4917267;29;20465;-71
2023/07/25 16:23:10;;;;;;;0.30;0.30;;;20.20;99.90;;;;;;4915639;29;20957;-71
2023/07/25 16:25:37;;;;;;;0.97;0.60;;;20.20;99.90;;;;;;4908945;29;20467;-71
2023/07/25 16:28:03;;;;;;;0.50;0.50;;;20.00;99.90;;;;;;4893834;29;20848;-70
2023/07/25 16:30:32;;;;;;;0.40;0.40;;;20.00;99.90;;;;;;4891942;29;20475;-72
2023/07/25 16:32:58;;;;;;;5.87;1.70;;;19.90;99.90;;;;;;4889510;29;21305;-72
2023/07/25 16:35:25;;;;;;;1.50;0.50;;;20.00;99.90;;;;;;4892783;29;20476;-72
2023/07/25 16:37:52;;;;;;;0.90;0.50;;;20.00;99.90;;;;;;4897380;29;20512;-70
2023/07/25 16:40:18;;;;;;;0.40;0.40;;;20.10;99.90;;;;;;4894736;29;20838;-71
2023/07/25 16:42:45;;;;;;;0.43;0.43;;;20.00;99.90;;;;;;4896832;29;20488;-69
2023/07/25 16:45:14;;;;;;;0.53;0.40;;;19.90;99.90;;;;;;4897380;29;20814;-71
2023/07/25 16:47:43;;;;;;;2.20;1.07;;;19.80;99.90;;;;;;4884764;29;20497;-72
2023/07/25 16:50:10;;;;;;;0.40;0.40;;;19.70;99.90;;;;;;4897545;29;20489;-71